Time;durP1;ratioP1;P1;durP2;ratioP2;P2;SDS_P1;SDS_P2;PMS_P1;PMS_P2;Temp;Humidity;BMP_temperature;BMP_pressure;BME280_temperature;BME280_humidity;BME280_pressure;Samples;Min_cycle;Max_cycle;Signal;HPM_P1;HPM_P2
2022/05/23 00:01:21;;;;;;;7.93;4.85;;;20.20;56.00;;;;;;5019500;28;20432;-86
2022/05/23 00:03:47;;;;;;;5.50;4.40;;;20.20;55.90;;;;;;5019217;28;20177;-87
2022/05/23 00:06:35;;;;;;;7.40;5.03;;;20.20;55.50;;;;;;5018892;28;20459;-87
2022/05/23 00:09:02;;;;;;;11.10;5.70;;;20.20;55.50;;;;;;5011603;28;20209;-86
2022/05/23 00:11:27;;;;;;;6.82;5.22;;;20.10;55.90;;;;;;5019173;28;20811;-86
2022/05/23 00:13:53;;;;;;;8.03;4.93;;;20.10;55.80;;;;;;5018821;28;20174;-86
2022/05/23 00:16:23;;;;;;;8.53;5.77;;;20.10;56.30;;;;;;5019169;28;20421;-87
2022/05/23 00:18:49;;;;;;;7.40;6.00;;;20.20;55.70;;;;;;5018408;28;20201;-87
2022/05/23 00:21:16;;;;;;;7.97;5.65;;;20.10;56.30;;;;;;5036514;28;20662;-87
2022/05/23 00:23:42;;;;;;;9.27;6.35;;;20.00;56.60;;;;;;5019362;28;20213;-87
2022/05/23 00:26:10;;;;;;;11.43;6.97;;;20.10;56.60;;;;;;5021875;28;20212;-87
2022/05/23 00:28:38;;;;;;;9.70;5.72;;;20.00;57.30;;;;;;5023470;28;20436;-86
2022/05/23 00:31:05;;;;;;;7.30;6.55;;;19.80;57.90;;;;;;5029411;28;20205;-86
2022/05/23 00:36:15;;;;;;;7.78;5.05;;;19.70;58.70;;;;;;5055786;28;20193;-86
2022/05/23 00:38:40;;;;;;;9.73;6.47;;;19.70;59.10;;;;;;5036060;28;20210;-87
2022/05/23 00:44:07;;;;;;;7.43;5.03;;;19.60;60.10;;;;;;5049504;28;20188;-87
2022/05/23 00:46:33;;;;;;;7.50;6.60;;;19.60;60.10;;;;;;5019730;28;20273;-87
2022/05/23 00:49:02;;;;;;;9.40;6.55;;;19.60;58.50;;;;;;5018697;28;20599;-87
2022/05/23 00:51:29;;;;;;;8.55;5.65;;;19.60;58.90;;;;;;5018008;28;20174;-87
2022/05/23 00:53:59;;;;;;;7.20;5.65;;;19.50;59.10;;;;;;5017679;28;20209;-88
2022/05/23 00:56:31;;;;;;;8.60;6.40;;;19.60;59.80;;;;;;5034823;28;20224;-86
2022/05/23 00:59:04;;;;;;;8.18;6.32;;;19.50;59.70;;;;;;5019848;28;20216;-87
2022/05/23 01:01:33;;;;;;;9.40;6.50;;;19.50;59.60;;;;;;5017153;28;20178;-87
2022/05/23 01:04:00;;;;;;;11.45;6.68;;;19.50;59.40;;;;;;5035537;28;20193;-87
2022/05/23 01:06:26;;;;;;;9.27;6.63;;;19.50;59.10;;;;;;5032700;28;20347;-88
2022/05/23 01:08:55;;;;;;;10.70;6.37;;;19.50;58.90;;;;;;5030637;28;20209;-88
2022/05/23 01:11:22;;;;;;;11.15;6.38;;;19.50;59.20;;;;;;5018947;28;20185;-86
2022/05/23 01:13:48;;;;;;;8.63;6.13;;;19.50;59.50;;;;;;5036434;28;20174;-86
2022/05/23 01:16:14;;;;;;;10.98;6.75;;;19.50;59.50;;;;;;5052767;28;20170;-92
2022/05/23 01:18:40;;;;;;;10.43;7.07;;;19.50;59.00;;;;;;5034323;28;20233;-86
2022/05/23 01:21:10;;;;;;;9.15;6.95;;;19.50;58.70;;;;;;5036281;28;20582;-86
2022/05/23 01:23:51;;;;;;;9.77;6.90;;;19.50;58.90;;;;;;5017567;28;20196;-89
2022/05/23 01:26:17;;;;;;;9.10;6.35;;;19.50;58.50;;;;;;5017351;28;20209;-87
2022/05/23 01:28:44;;;;;;;11.98;7.28;;;19.50;58.60;;;;;;5035449;28;20227;-86
2022/05/23 01:31:12;;;;;;;8.60;6.18;;;19.50;58.60;;;;;;5017147;28;20177;-86
2022/05/23 01:33:38;;;;;;;8.82;7.03;;;19.50;58.80;;;;;;5017667;28;20722;-87
2022/05/23 01:36:05;;;;;;;11.07;6.90;;;19.50;59.00;;;;;;5019484;28;20308;-87
2022/05/23 01:38:30;;;;;;;7.80;6.20;;;19.60;58.50;;;;;;5033186;28;20308;-86
2022/05/23 01:40:57;;;;;;;9.73;7.07;;;19.50;58.70;;;;;;5017531;28;20684;-87
2022/05/23 01:43:24;;;;;;;11.27;7.13;;;19.50;59.00;;;;;;5018904;28;20661;-87
2022/05/23 01:45:50;;;;;;;10.50;7.18;;;19.50;58.90;;;;;;5019703;28;20210;-87
2022/05/23 01:48:16;;;;;;;18.15;7.53;;;19.40;59.20;;;;;;5016345;28;20285;-87
2022/05/23 01:50:42;;;;;;;14.00;7.90;;;19.50;58.90;;;;;;5017759;28;20202;-86
2022/05/23 01:53:08;;;;;;;8.70;7.30;;;19.50;58.90;;;;;;5035278;28;20492;-87
2022/05/23 01:55:36;;;;;;;11.70;7.53;;;19.50;58.80;;;;;;5017129;28;20470;-87
2022/05/23 01:58:03;;;;;;;13.65;8.05;;;19.50;58.60;;;;;;5016650;28;20201;-87
2022/05/23 02:03:13;;;;;;;10.02;7.88;;;19.40;58.30;;;;;;5039738;28;20181;-86
2022/05/23 02:05:48;;;;;;;18.80;8.97;;;19.50;58.40;;;;;;5004341;28;20209;-86
2022/05/23 02:08:14;;;;;;;11.10;8.43;;;19.40;58.50;;;;;;5020200;28;20209;-84
2022/05/23 02:10:40;;;;;;;16.33;8.83;;;19.40;58.70;;;;;;5018664;28;20569;-84
2022/05/23 02:13:06;;;;;;;11.93;9.20;;;19.40;59.00;;;;;;5021397;28;20974;-84
2022/05/23 02:15:32;;;;;;;10.52;8.20;;;19.40;59.10;;;;;;5031208;28;20185;-84
2022/05/23 02:18:03;;;;;;;10.32;8.45;;;19.40;59.30;;;;;;5026003;28;20202;-84
2022/05/23 02:20:29;;;;;;;12.90;10.00;;;19.30;59.50;;;;;;5023778;28;20181;-84
2022/05/23 02:22:55;;;;;;;10.13;7.97;;;19.30;59.50;;;;;;5017212;28;20189;-84
2022/05/23 02:25:22;;;;;;;12.52;9.02;;;19.30;59.80;;;;;;5016439;28;20207;-84
2022/05/23 02:27:48;;;;;;;11.05;8.13;;;19.30;59.90;;;;;;5034065;28;20728;-83
2022/05/23 02:30:15;;;;;;;11.68;9.73;;;19.20;60.10;;;;;;5016493;28;20177;-84
2022/05/23 02:32:41;;;;;;;8.90;7.78;;;19.20;60.50;;;;;;5016405;28;20178;-84
2022/05/23 02:35:07;;;;;;;10.50;9.03;;;19.20;61.20;;;;;;5034338;28;20184;-84
2022/05/23 02:37:33;;;;;;;11.75;9.80;;;19.00;61.40;;;;;;5016463;28;20448;-84
2022/05/23 02:39:59;;;;;;;10.93;9.40;;;19.10;61.40;;;;;;5034544;28;20308;-84
2022/05/23 02:42:25;;;;;;;11.10;9.90;;;19.20;61.20;;;;;;5016493;28;20177;-84
2022/05/23 02:44:50;;;;;;;13.90;9.97;;;19.10;61.30;;;;;;5016294;28;20205;-84
2022/05/23 02:47:16;;;;;;;13.90;9.90;;;19.10;61.60;;;;;;5016602;28;20200;-84
2022/05/23 02:49:42;;;;;;;15.63;9.90;;;19.10;61.70;;;;;;5016961;28;20197;-85
2022/05/23 02:52:08;;;;;;;11.17;8.90;;;19.10;61.70;;;;;;5018639;28;20176;-88
2022/05/23 02:54:34;;;;;;;12.83;9.87;;;19.00;61.90;;;;;;5039105;28;20177;-88
2022/05/23 02:57:00;;;;;;;12.80;9.02;;;19.00;62.10;;;;;;5021952;28;20443;-88
2022/05/23 02:59:26;;;;;;;13.33;9.60;;;19.00;62.30;;;;;;5040040;28;20659;-88
2022/05/23 03:04:37;;;;;;;12.23;9.80;;;18.90;62.40;;;;;;5053487;28;20200;-88
2022/05/23 03:07:03;;;;;;;12.03;9.40;;;18.90;63.00;;;;;;5035708;28;20206;-87
2022/05/23 03:09:31;;;;;;;15.27;10.13;;;18.80;62.90;;;;;;5037717;28;20630;-87
2022/05/23 03:11:57;;;;;;;11.40;10.20;;;18.90;62.90;;;;;;5037113;28;20436;-87
2022/05/23 03:14:23;;;;;;;12.60;10.23;;;18.80;63.30;;;;;;5038973;28;20236;-88
2022/05/23 03:16:49;;;;;;;12.30;9.10;;;18.70;63.80;;;;;;5015551;28;20420;-88
2022/05/23 03:19:14;;;;;;;13.53;8.90;;;18.60;64.70;;;;;;5015257;28;20181;-88
2022/05/23 03:27:08;;;;;;;13.70;9.68;;;18.50;66.20;;;;;;5036832;28;20592;-88
2022/05/23 03:29:34;;;;;;;13.07;9.30;;;18.50;66.30;;;;;;5022185;28;20264;-89
2022/05/23 03:32:00;;;;;;;19.40;10.60;;;18.50;66.50;;;;;;5021054;28;20174;-89
2022/05/23 03:34:26;;;;;;;11.40;9.57;;;18.50;66.10;;;;;;5021285;28;20334;-88
2022/05/23 03:36:51;;;;;;;10.87;9.77;;;18.50;65.80;;;;;;5020870;28;20424;-89
2022/05/23 03:39:18;;;;;;;12.17;9.10;;;18.50;66.00;;;;;;5020294;28;20182;-90
2022/05/23 03:41:44;;;;;;;16.95;9.95;;;18.40;66.40;;;;;;5019988;28;20182;-90
2022/05/23 03:44:09;;;;;;;11.90;10.53;;;18.50;66.10;;;;;;5019703;28;20285;-89
2022/05/23 03:46:36;;;;;;;13.53;10.60;;;18.40;66.10;;;;;;5034491;28;21924;-88
2022/05/23 03:49:06;;;;;;;12.18;9.93;;;18.30;67.20;;;;;;5037687;28;20260;-88
2022/05/23 03:51:32;;;;;;;13.00;10.50;;;18.40;66.90;;;;;;5035074;28;20193;-89
2022/05/23 03:53:58;;;;;;;11.45;10.35;;;18.30;67.50;;;;;;5018825;28;20170;-89
2022/05/23 03:56:24;;;;;;;11.87;10.67;;;18.40;67.40;;;;;;5018086;28;20614;-89
2022/05/23 03:58:49;;;;;;;11.87;10.57;;;18.40;67.20;;;;;;5018007;28;20198;-88
2022/05/23 04:01:18;;;;;;;13.07;10.23;;;18.40;66.90;;;;;;5034698;28;20232;-89
2022/05/23 04:03:44;;;;;;;16.67;11.98;;;18.50;66.60;;;;;;5018305;28;20194;-88
2022/05/23 04:06:10;;;;;;;12.50;11.20;;;18.50;67.10;;;;;;5035782;28;20201;-88
2022/05/23 04:08:36;;;;;;;14.30;10.03;;;18.40;67.70;;;;;;4930084;28;2545625;-88
2022/05/23 04:11:03;;;;;;;15.77;10.57;;;18.40;67.90;;;;;;5019540;28;20177;-88
2022/05/23 04:13:30;;;;;;;11.05;8.70;;;18.40;67.50;;;;;;5037369;28;20235;-88
2022/05/23 04:15:56;;;;;;;11.27;10.10;;;18.50;67.30;;;;;;5019094;28;20664;-89
2022/05/23 04:18:22;;;;;;;14.80;11.17;;;18.50;67.90;;;;;;5034549;28;20293;-88
2022/05/23 04:20:49;;;;;;;15.35;10.18;;;18.50;67.40;;;;;;5036807;28;20478;-88
2022/05/23 04:23:15;;;;;;;11.15;10.02;;;18.50;67.40;;;;;;5019364;28;20193;-88
2022/05/23 04:25:48;;;;;;;10.90;9.73;;;18.50;67.50;;;;;;5036589;28;20642;-89
2022/05/23 04:28:16;;;;;;;12.98;11.60;;;18.50;67.30;;;;;;5036728;28;20198;-88
2022/05/23 04:30:43;;;;;;;12.02;10.70;;;18.50;67.60;;;;;;5019406;28;20272;-90
2022/05/23 04:35:58;;;;;;;14.63;9.85;;;18.60;66.70;;;;;;5036913;28;20177;-89
2022/05/23 04:38:24;;;;;;;18.60;9.40;;;18.60;67.70;;;;;;5018728;28;20198;-90
2022/05/23 04:40:49;;;;;;;12.07;10.70;;;18.60;67.80;;;;;;5020571;28;20704;-89
2022/05/23 04:43:16;;;;;;;14.30;10.90;;;18.60;67.50;;;;;;5046532;28;20169;-88
2022/05/23 04:45:42;;;;;;;13.40;10.90;;;18.70;66.70;;;;;;5034169;28;20237;-89
2022/05/23 04:50:53;;;;;;;13.65;11.00;;;18.80;66.20;;;;;;5043132;28;20500;-89
2022/05/23 04:53:20;;;;;;;14.60;11.15;;;18.90;66.10;;;;;;5045846;28;20190;-90
2022/05/23 04:55:45;;;;;;;15.98;10.18;;;18.90;65.80;;;;;;5030132;28;20212;-89
2022/05/23 04:58:20;;;;;;;12.60;10.20;;;18.90;65.90;;;;;;5059066;28;20206;-91
2022/05/23 05:00:46;;;;;;;12.52;10.07;;;19.00;66.10;;;;;;5049910;28;20245;-90
2022/05/23 05:03:12;;;;;;;12.50;10.57;;;19.10;65.80;;;;;;5025252;28;20528;-90
2022/05/23 05:05:37;;;;;;;13.60;10.63;;;19.20;65.40;;;;;;5038197;28;20224;-90
2022/05/23 05:08:04;;;;;;;14.83;11.53;;;19.40;64.60;;;;;;5019273;28;20904;-90
2022/05/23 05:10:31;;;;;;;13.77;11.52;;;19.40;64.00;;;;;;5018349;28;20178;-90
2022/05/23 05:12:57;;;;;;;17.35;12.50;;;19.50;63.60;;;;;;5018263;28;20186;-89
2022/05/23 05:15:25;;;;;;;15.75;12.00;;;19.50;63.30;;;;;;5018360;28;20181;-90
2022/05/23 05:17:51;;;;;;;19.60;12.00;;;19.50;63.50;;;;;;5018841;28;20212;-89
2022/05/23 05:20:20;;;;;;;13.73;12.00;;;19.40;63.70;;;;;;5018675;28;20276;-90
2022/05/23 05:22:47;;;;;;;14.82;11.20;;;19.40;63.80;;;;;;5018714;28;20174;-90
2022/05/23 05:25:14;;;;;;;13.70;11.00;;;19.50;64.10;;;;;;5010364;28;20206;-90
2022/05/23 05:27:41;;;;;;;11.60;10.45;;;19.50;64.10;;;;;;5012697;28;20205;-91
2022/05/23 05:30:09;;;;;;;13.15;10.88;;;19.50;64.10;;;;;;5040237;28;20178;-91
2022/05/23 05:32:58;;;;;;;12.98;10.13;;;19.60;63.80;;;;;;5043695;28;20174;-91
2022/05/23 05:35:33;;;;;;;13.93;9.70;;;19.60;64.30;;;;;;5041637;28;20170;-90
2022/05/23 05:38:02;;;;;;;13.05;9.95;;;19.60;64.60;;;;;;5027190;28;20224;-89
2022/05/23 05:40:30;;;;;;;13.07;10.38;;;19.70;64.70;;;;;;5039314;28;20178;-88
2022/05/23 05:43:04;;;;;;;14.23;10.95;;;19.70;64.80;;;;;;5039494;28;20244;-88
2022/05/23 05:46:13;;;;;;;10.95;9.52;;;19.80;64.70;;;;;;5019315;28;20224;-91
2022/05/23 05:48:42;;;;;;;13.40;9.02;;;19.90;64.50;;;;;;5009207;28;20229;-90
2022/05/23 05:51:11;;;;;;;13.88;10.73;;;20.00;63.90;;;;;;5018909;28;20200;-91
2022/05/23 05:53:37;;;;;;;12.20;10.00;;;20.10;63.60;;;;;;5033971;28;20210;-91
2022/05/23 05:56:04;;;;;;;12.47;10.50;;;20.30;62.70;;;;;;5018874;28;20436;-91
2022/05/23 05:58:32;;;;;;;11.50;10.30;;;20.40;63.00;;;;;;5020713;28;20531;-91
2022/05/23 06:00:57;;;;;;;15.03;10.67;;;20.50;62.20;;;;;;5023557;28;20429;-91
2022/05/23 06:03:23;;;;;;;13.90;9.83;;;20.60;61.60;;;;;;5020029;28;20474;-90
2022/05/23 06:11:23;;;;;;;12.03;10.00;;;20.70;61.40;;;;;;5055754;28;20419;-91
2022/05/23 06:14:00;;;;;;;15.03;10.40;;;20.70;61.70;;;;;;5031975;28;20433;-92
2022/05/23 06:16:28;;;;;;;13.43;10.90;;;20.80;61.70;;;;;;5019954;28;20416;-92
2022/05/23 06:18:55;;;;;;;17.53;12.10;;;20.70;62.10;;;;;;5014311;28;20441;-92
2022/05/23 06:21:23;;;;;;;13.63;12.23;;;20.70;61.50;;;;;;5028090;28;20417;-92
2022/05/23 06:23:49;;;;;;;20.23;12.63;;;20.60;61.50;;;;;;5027063;28;20440;-92
2022/05/23 06:26:16;;;;;;;13.00;11.60;;;20.40;62.80;;;;;;5027303;28;20689;-90
2022/05/23 06:28:42;;;;;;;15.53;11.47;;;20.40;63.40;;;;;;5028752;28;20444;-90
2022/05/23 06:31:09;;;;;;;12.20;10.70;;;20.40;63.10;;;;;;5050904;28;20439;-90
2022/05/23 06:33:36;;;;;;;13.90;11.00;;;20.40;63.30;;;;;;5032821;28;20441;-90
2022/05/23 06:36:06;;;;;;;16.13;12.23;;;20.30;63.50;;;;;;5039562;28;20436;-90
2022/05/23 06:38:34;;;;;;;14.33;11.93;;;20.40;63.90;;;;;;5047248;28;20425;-90
2022/05/23 06:41:00;;;;;;;14.93;12.13;;;20.40;64.10;;;;;;5018115;28;20441;-90
2022/05/23 06:43:27;;;;;;;15.50;11.63;;;20.50;64.50;;;;;;5037673;28;20409;-90
2022/05/23 06:45:52;;;;;;;12.20;10.93;;;20.50;64.40;;;;;;5035639;28;20459;-88
2022/05/23 06:48:18;;;;;;;12.90;11.17;;;20.50;64.40;;;;;;5028696;28;20685;-91
2022/05/23 06:50:47;;;;;;;14.13;10.50;;;20.70;64.20;;;;;;5017933;28;20483;-91
2022/05/23 06:53:13;;;;;;;15.13;10.30;;;20.70;64.00;;;;;;5034894;28;20220;-91
2022/05/23 06:55:39;;;;;;;12.20;10.27;;;20.80;64.30;;;;;;5035330;28;20527;-91
2022/05/23 06:58:06;;;;;;;13.70;10.53;;;20.80;65.00;;;;;;5024777;28;20460;-90
2022/05/23 07:00:32;;;;;;;11.50;9.90;;;20.80;64.30;;;;;;5022173;28;20429;-88
2022/05/23 07:02:57;;;;;;;12.20;10.00;;;20.80;64.10;;;;;;5018132;28;20419;-88
2022/05/23 07:13:37;;;;;;;8.97;7.73;;;21.10;62.10;;;;;;5036706;28;20392;-89
2022/05/23 07:16:05;;;;;;;14.00;7.60;;;21.00;61.70;;;;;;5002004;28;20424;-89
2022/05/23 07:18:32;;;;;;;8.43;7.60;;;21.10;61.90;;;;;;5042518;28;20978;-89
2022/05/23 07:20:58;;;;;;;9.83;6.40;;;21.10;62.00;;;;;;5019074;28;20425;-90
2022/05/23 07:23:24;;;;;;;8.17;7.47;;;21.10;61.90;;;;;;5018251;28;20493;-89
2022/05/23 07:25:50;;;;;;;10.90;7.83;;;21.20;61.40;;;;;;5019651;28;20983;-91
2022/05/23 07:28:15;;;;;;;11.20;8.40;;;21.30;60.90;;;;;;5017341;28;20432;-89
2022/05/23 07:30:43;;;;;;;8.40;7.17;;;21.30;60.70;;;;;;5017485;28;20432;-89
2022/05/23 07:33:09;;;;;;;9.07;7.23;;;21.20;61.00;;;;;;5017665;28;20174;-89
2022/05/23 07:35:37;;;;;;;8.90;7.13;;;21.30;61.60;;;;;;5018723;28;20420;-89
2022/05/23 07:38:03;;;;;;;12.93;8.63;;;21.40;62.10;;;;;;5023634;28;20836;-90
2022/05/23 07:40:29;;;;;;;10.83;8.33;;;21.30;62.00;;;;;;5020807;28;20451;-90
2022/05/23 07:42:55;;;;;;;12.10;8.00;;;21.40;61.40;;;;;;5021716;28;20443;-91
2022/05/23 07:45:20;;;;;;;9.47;8.57;;;21.40;62.70;;;;;;5024888;28;20460;-88
2022/05/23 07:47:46;;;;;;;9.27;8.17;;;21.40;63.50;;;;;;5028992;28;20467;-86
2022/05/23 07:50:12;;;;;;;12.80;8.00;;;21.30;63.60;;;;;;5031953;28;20182;-89
2022/05/23 07:52:38;;;;;;;10.37;9.23;;;21.30;63.60;;;;;;5033966;28;20197;-88
2022/05/23 08:00:34;;;;;;;12.30;9.00;;;21.10;62.40;;;;;;5045814;28;20419;-89
2022/05/23 08:03:10;;;;;;;10.97;7.67;;;21.00;62.10;;;;;;5026452;28;20527;-89
2022/05/23 08:05:37;;;;;;;10.23;7.60;;;21.00;62.10;;;;;;5046024;28;20455;-88
2022/05/23 08:08:03;;;;;;;12.40;8.20;;;21.00;61.90;;;;;;5035753;28;20488;-86
2022/05/23 08:10:28;;;;;;;10.83;7.97;;;21.10;62.20;;;;;;5055524;28;20434;-88
2022/05/23 08:12:57;;;;;;;8.20;6.83;;;21.10;61.30;;;;;;5038390;28;20448;-89
2022/05/23 08:15:25;;;;;;;10.83;7.63;;;21.30;60.80;;;;;;5027667;28;20673;-88
2022/05/23 08:17:51;;;;;;;7.50;6.73;;;21.40;59.50;;;;;;5021283;28;20957;-89
2022/05/23 08:20:18;;;;;;;9.40;6.57;;;21.50;58.80;;;;;;5021970;28;20435;-89
2022/05/23 08:22:45;;;;;;;10.60;7.10;;;21.60;58.40;;;;;;5026151;28;20408;-88
2022/05/23 08:25:11;;;;;;;9.97;7.00;;;21.80;58.70;;;;;;5049346;28;20555;-90
2022/05/23 08:27:38;;;;;;;8.20;7.27;;;21.80;57.90;;;;;;5040042;28;20507;-89
2022/05/23 08:30:05;;;;;;;5.70;5.20;;;21.90;57.30;;;;;;5020564;28;20451;-89
2022/05/23 08:32:31;;;;;;;9.23;6.20;;;21.90;57.00;;;;;;5020468;28;20420;-89
2022/05/23 08:34:57;;;;;;;8.30;6.77;;;22.10;56.80;;;;;;5038971;28;20435;-89
2022/05/23 08:37:23;;;;;;;9.10;5.90;;;22.30;56.60;;;;;;5036791;28;20193;-87
2022/05/23 08:39:48;;;;;;;6.70;6.10;;;22.50;56.20;;;;;;5034313;28;20210;-90
2022/05/23 08:42:32;;;;;;;6.60;5.60;;;22.70;55.60;;;;;;5020999;28;20182;-90
2022/05/23 08:45:08;;;;;;;8.73;7.93;;;22.80;55.70;;;;;;5020860;28;20701;-90
2022/05/23 08:47:43;;;;;;;6.50;5.80;;;23.10;55.10;;;;;;5038932;28;20893;-90
2022/05/23 08:50:12;;;;;;;7.23;6.37;;;23.30;54.70;;;;;;5038414;28;20527;-90
2022/05/23 08:52:47;;;;;;;7.40;6.17;;;23.40;54.10;;;;;;5020537;28;20823;-89
2022/05/23 08:55:30;;;;;;;7.90;5.70;;;23.60;54.20;;;;;;5020922;28;20459;-90
2022/05/23 08:58:21;;;;;;;8.40;7.27;;;23.80;52.40;;;;;;5040101;28;20444;-90
2022/05/23 09:01:07;;;;;;;7.40;5.80;;;24.00;52.70;;;;;;5020009;28;20427;-90
2022/05/23 09:03:57;;;;;;;8.37;6.83;;;24.00;52.10;;;;;;5021693;28;20429;-90
2022/05/23 09:06:27;;;;;;;7.60;6.40;;;24.00;52.80;;;;;;5038654;28;20479;-89
2022/05/23 09:08:56;;;;;;;6.97;6.27;;;24.00;52.80;;;;;;5020968;28;20854;-90
2022/05/23 09:11:30;;;;;;;7.77;7.00;;;23.80;52.60;;;;;;5022039;28;20610;-89
2022/05/23 09:13:57;;;;;;;7.70;6.63;;;23.60;53.60;;;;;;5049224;28;20416;-88
2022/05/23 09:16:29;;;;;;;8.60;7.73;;;23.50;53.60;;;;;;5027910;28;20424;-90
2022/05/23 09:19:10;;;;;;;7.90;7.10;;;23.40;54.20;;;;;;5053595;28;20463;-88
2022/05/23 09:24:20;;;;;;;10.07;7.90;;;23.20;55.30;;;;;;5047601;28;20482;-90
2022/05/23 09:26:47;;;;;;;9.47;8.40;;;23.00;55.60;;;;;;5027819;28;20956;-89
2022/05/23 09:29:13;;;;;;;11.80;8.83;;;22.70;56.40;;;;;;5024126;28;20421;-90
2022/05/23 09:31:44;;;;;;;10.63;7.47;;;22.70;57.30;;;;;;5038020;28;20420;-90
2022/05/23 09:34:35;;;;;;;7.03;6.47;;;22.60;58.10;;;;;;5019438;28;20928;-91
2022/05/23 09:37:03;;;;;;;10.83;6.53;;;22.70;57.90;;;;;;5037841;28;20424;-91
2022/05/23 09:39:30;;;;;;;11.53;7.83;;;22.80;57.90;;;;;;5020418;28;20421;-90
2022/05/23 09:47:44;;;;;;;8.00;6.33;;;23.30;56.10;;;;;;5038191;28;20440;-91
2022/05/23 09:50:11;;;;;;;6.00;5.40;;;23.60;55.10;;;;;;5019413;28;20416;-90
2022/05/23 09:52:46;;;;;;;6.30;5.70;;;23.80;53.10;;;;;;5018881;28;20440;-87
2022/05/23 09:55:14;;;;;;;8.00;6.93;;;24.10;51.10;;;;;;5003952;28;20424;-89
2022/05/23 09:57:50;;;;;;;7.13;5.33;;;24.10;50.70;;;;;;5018446;28;20437;-85
2022/05/23 10:00:17;;;;;;;9.70;6.10;;;24.10;50.10;;;;;;5018560;28;20428;-88
2022/05/23 10:02:59;;;;;;;6.17;5.57;;;24.00;49.70;;;;;;5018603;28;20460;-87
2022/05/23 10:05:53;;;;;;;7.90;5.70;;;23.90;50.50;;;;;;5020219;28;21011;-86
2022/05/23 10:08:35;;;;;;;8.47;5.30;;;23.70;52.60;;;;;;5020156;28;20535;-86
2022/05/23 10:11:12;;;;;;;5.60;5.10;;;23.70;54.10;;;;;;5021291;28;20440;-86
2022/05/23 10:13:40;;;;;;;7.10;6.40;;;23.70;55.40;;;;;;5030565;28;20416;-86
2022/05/23 10:16:08;;;;;;;7.97;5.90;;;23.70;54.00;;;;;;5033401;28;20427;-85
2022/05/23 10:19:01;;;;;;;6.83;6.17;;;23.60;53.60;;;;;;5021532;28;20549;-86
2022/05/23 10:21:40;;;;;;;7.80;6.27;;;23.70;53.30;;;;;;5016087;28;20824;-86
2022/05/23 10:24:27;;;;;;;9.03;6.73;;;23.90;52.70;;;;;;5003578;28;20579;-86
2022/05/23 10:27:00;;;;;;;7.90;7.17;;;24.20;52.30;;;;;;5011366;28;20472;-86
2022/05/23 10:29:43;;;;;;;9.77;5.97;;;24.20;51.30;;;;;;5013438;28;20449;-86
2022/05/23 10:32:12;;;;;;;11.20;5.83;;;24.20;51.60;;;;;;5030852;28;20397;-86
2022/05/23 10:34:37;;;;;;;5.90;5.40;;;24.00;52.40;;;;;;5030573;28;20428;-87
2022/05/23 10:37:08;;;;;;;9.60;6.47;;;23.90;53.60;;;;;;5036039;28;20492;-88
2022/05/23 10:42:49;;;;;;;6.63;6.00;;;23.70;53.40;;;;;;5050018;28;20472;-85
2022/05/23 10:45:39;;;;;;;8.67;5.47;;;23.60;53.50;;;;;;5023868;28;20448;-86
2022/05/23 10:48:10;;;;;;;5.57;4.40;;;23.50;53.60;;;;;;5020207;28;20432;-86
2022/05/23 10:50:54;;;;;;;5.00;4.60;;;23.50;54.50;;;;;;5021665;28;20436;-86
2022/05/23 10:53:47;;;;;;;6.17;5.57;;;23.60;54.50;;;;;;5028662;28;20428;-86
2022/05/23 10:56:25;;;;;;;5.40;4.90;;;23.60;54.40;;;;;;5021218;28;20412;-86
2022/05/23 10:59:02;;;;;;;5.90;4.40;;;23.80;53.30;;;;;;5036934;28;20486;-86
2022/05/23 11:01:48;;;;;;;7.23;5.10;;;23.80;52.90;;;;;;5016631;28;20470;-86
2022/05/23 11:04:54;;;;;;;8.57;4.73;;;23.90;52.20;;;;;;5034452;28;20482;-86
2022/05/23 11:08:05;;;;;;;8.33;5.10;;;23.70;52.50;;;;;;5035346;28;20457;-86
2022/05/23 11:10:42;;;;;;;5.50;4.30;;;23.80;52.10;;;;;;5025942;28;20515;-86
2022/05/23 11:13:19;;;;;;;7.47;4.63;;;23.60;53.00;;;;;;5017498;28;20416;-86
2022/05/23 11:16:02;;;;;;;6.27;5.00;;;23.50;52.40;;;;;;5017988;28;20927;-86
2022/05/23 11:18:50;;;;;;;4.07;3.67;;;23.50;52.70;;;;;;5034588;28;20427;-86
2022/05/23 11:21:28;;;;;;;8.23;4.80;;;23.30;52.80;;;;;;5016572;28;20415;-86
2022/05/23 11:24:05;;;;;;;4.13;3.80;;;23.30;51.70;;;;;;5016243;28;20499;-85
2022/05/23 11:26:43;;;;;;;4.20;3.80;;;23.10;52.10;;;;;;5002747;28;20456;-86
2022/05/23 11:34:48;;;;;;;4.73;3.10;;;22.90;55.30;;;;;;5034215;28;20392;-85
2022/05/23 11:40:11;;;;;;;7.23;4.07;;;22.80;55.50;;;;;;5035482;28;20146;-87
2022/05/23 11:42:53;;;;;;;4.97;4.50;;;22.70;55.40;;;;;;5018634;28;20424;-85
2022/05/23 11:48:49;;;;;;;6.57;4.47;;;22.70;55.20;;;;;;5039999;28;20439;-87
2022/05/23 11:51:24;;;;;;;5.73;4.07;;;22.70;55.60;;;;;;5040163;28;20435;-86
2022/05/23 11:53:56;;;;;;;6.23;4.73;;;22.70;55.60;;;;;;5021372;28;20904;-87
2022/05/23 11:56:37;;;;;;;6.20;4.37;;;22.60;55.70;;;;;;5022634;28;20420;-85
2022/05/23 11:59:08;;;;;;;7.33;4.00;;;22.50;55.80;;;;;;5044600;28;20500;-86
2022/05/23 12:01:34;;;;;;;4.80;4.00;;;22.40;56.90;;;;;;5027191;28;20440;-86
2022/05/23 12:03:59;;;;;;;13.00;6.33;;;22.30;62.60;;;;;;5030989;28;20428;-86
2022/05/23 12:06:25;;;;;;;16.00;8.60;;;22.10;71.70;;;;;;5039713;28;20633;-86
2022/05/23 12:09:04;;;;;;;12.23;8.00;;;21.70;79.50;;;;;;5046598;28;20228;-86
2022/05/23 12:11:35;;;;;;;15.27;9.13;;;21.40;82.10;;;;;;5028897;28;20184;-86
2022/05/23 12:14:42;;;;;;;16.27;11.63;;;21.00;85.80;;;;;;5033957;28;20416;-86
2022/05/23 12:17:12;;;;;;;15.47;10.27;;;20.70;89.80;;;;;;5039672;28;20444;-89
2022/05/23 12:19:41;;;;;;;17.20;13.00;;;20.40;92.60;;;;;;5039166;28;20427;-86
2022/05/23 12:22:19;;;;;;;15.40;11.90;;;20.20;94.10;;;;;;5052554;28;20462;-87
2022/05/23 12:25:09;;;;;;;15.30;11.80;;;20.00;95.20;;;;;;5032832;28;20421;-86
2022/05/23 12:27:44;;;;;;;13.73;10.80;;;19.90;96.10;;;;;;5027263;28;21026;-87
2022/05/23 12:30:23;;;;;;;13.97;11.17;;;19.80;96.70;;;;;;5026956;28;20414;-87
2022/05/23 12:33:00;;;;;;;16.83;11.13;;;19.80;97.20;;;;;;5029884;28;20547;-86
2022/05/23 12:35:51;;;;;;;13.20;11.80;;;19.70;97.50;;;;;;5042188;28;20571;-87
2022/05/23 12:38:44;;;;;;;22.95;12.00;;;19.70;97.70;;;;;;5022644;28;20288;-86
2022/05/23 12:41:47;;;;;;;12.85;10.98;;;19.50;96.90;;;;;;5040252;28;20169;-85
2022/05/23 12:44:16;;;;;;;14.20;11.75;;;19.40;96.60;;;;;;5022983;28;20177;-86
2022/05/23 12:47:07;;;;;;;16.10;12.27;;;19.30;96.10;;;;;;5023060;28;20220;-86
2022/05/23 12:49:54;;;;;;;14.05;10.43;;;19.30;95.70;;;;;;5023523;28;20174;-86
2022/05/23 12:52:35;;;;;;;13.82;11.45;;;19.30;96.00;;;;;;5022484;28;20622;-86
2022/05/23 12:55:16;;;;;;;18.67;14.80;;;19.50;96.00;;;;;;5007389;28;20189;-85
2022/05/23 12:58:10;;;;;;;19.52;14.48;;;19.50;96.90;;;;;;5044384;28;20201;-86
2022/05/23 13:00:42;;;;;;;17.55;13.25;;;19.30;98.10;;;;;;5030435;28;20177;-86
2022/05/23 13:03:48;;;;;;;14.93;13.43;;;19.20;98.10;;;;;;5048418;28;20166;-86
2022/05/23 13:06:35;;;;;;;18.52;14.75;;;19.10;98.30;;;;;;5033167;28;20193;-87
2022/05/23 13:09:32;;;;;;;18.88;16.05;;;19.10;98.90;;;;;;5041157;28;20209;-86
2022/05/23 13:12:06;;;;;;;18.17;16.10;;;19.10;99.40;;;;;;5036857;28;20194;-85
2022/05/23 13:14:56;;;;;;;19.15;14.80;;;19.00;99.30;;;;;;5022361;28;20162;-86
2022/05/23 13:17:29;;;;;;;18.02;13.68;;;18.90;98.00;;;;;;5021661;28;20212;-86
2022/05/23 13:22:39;;;;;;;18.13;14.45;;;18.90;96.40;;;;;;5039587;28;20192;-86
2022/05/23 13:25:06;;;;;;;14.57;12.35;;;19.00;96.90;;;;;;5021000;28;20300;-86
2022/05/23 13:27:37;;;;;;;13.55;12.23;;;19.10;96.90;;;;;;5020871;28;20308;-87
2022/05/23 13:30:08;;;;;;;16.48;12.05;;;19.20;94.00;;;;;;5022282;28;20185;-86
2022/05/23 13:32:35;;;;;;;14.40;12.90;;;19.20;92.80;;;;;;5023100;28;20174;-87
2022/05/23 13:35:14;;;;;;;21.33;17.67;;;19.10;93.30;;;;;;5029736;28;20228;-87
2022/05/23 13:37:40;;;;;;;22.45;17.65;;;19.00;94.30;;;;;;5031563;28;20204;-87
2022/05/23 13:40:14;;;;;;;23.50;20.00;;;19.00;96.70;;;;;;5031077;28;20201;-87
2022/05/23 13:42:40;;;;;;;25.15;21.25;;;18.90;97.90;;;;;;5031132;28;20779;-86
2022/05/23 13:45:23;;;;;;;30.00;19.88;;;18.80;98.00;;;;;;5028766;28;20272;-86
2022/05/23 13:47:57;;;;;;;21.25;17.88;;;18.70;97.40;;;;;;5043474;28;20204;-87
2022/05/23 13:50:33;;;;;;;23.17;18.45;;;18.80;97.40;;;;;;5021835;28;20185;-87
2022/05/23 13:53:06;;;;;;;39.28;31.67;;;18.80;97.50;;;;;;5026663;28;20170;-85
2022/05/23 13:55:41;;;;;;;38.10;29.98;;;18.70;98.90;;;;;;5022827;28;20268;-87
2022/05/23 13:58:14;;;;;;;39.80;32.45;;;18.70;99.90;;;;;;5022419;28;20201;-88
2022/05/23 14:00:43;;;;;;;42.70;34.40;;;18.60;99.90;;;;;;5019752;28;20182;-86
2022/05/23 14:03:41;;;;;;;43.78;36.00;;;18.60;99.90;;;;;;5018418;28;20182;-86